sensor_id;sensor_type;location;lat;lon;timestamp;P1;durP1;ratioP1;P2;durP2;ratioP2
48006;SDS011;33771;48.180;11.400;2023-08-31T00:02:20;3.55;;;2.42;;
48006;SDS011;33771;48.180;11.400;2023-08-31T00:04:46;4.22;;;2.80;;
48006;SDS011;33771;48.180;11.400;2023-08-31T00:07:11;4.28;;;2.60;;
48006;SDS011;33771;48.180;11.400;2023-08-31T00:09:37;4.65;;;2.45;;
48006;SDS011;33771;48.180;11.400;2023-08-31T00:12:04;3.28;;;2.30;;
48006;SDS011;33771;48.180;11.400;2023-08-31T00:14:30;4.25;;;2.40;;
48006;SDS011;33771;48.180;11.400;2023-08-31T00:16:57;5.60;;;2.20;;
48006;SDS011;33771;48.180;11.400;2023-08-31T00:19:23;8.13;;;2.20;;
48006;SDS011;33771;48.180;11.400;2023-08-31T00:21:48;2.58;;;2.17;;
48006;SDS011;33771;48.180;11.400;2023-08-31T00:24:14;5.75;;;2.25;;
48006;SDS011;33771;48.180;11.400;2023-08-31T00:26:40;3.17;;;2.28;;
48006;SDS011;33771;48.180;11.400;2023-08-31T00:29:08;5.80;;;2.03;;
48006;SDS011;33771;48.180;11.400;2023-08-31T00:31:35;2.80;;;2.20;;
48006;SDS011;33771;48.180;11.400;2023-08-31T00:34:01;3.10;;;2.30;;
48006;SDS011;33771;48.180;11.400;2023-08-31T00:36:28;4.60;;;3.08;;
48006;SDS011;33771;48.180;11.400;2023-08-31T00:38:54;4.03;;;2.22;;
48006;SDS011;33771;48.180;11.400;2023-08-31T00:41:21;3.63;;;2.08;;
48006;SDS011;33771;48.180;11.400;2023-08-31T00:43:47;3.85;;;2.17;;
48006;SDS011;33771;48.180;11.400;2023-08-31T00:46:13;4.15;;;2.22;;
48006;SDS011;33771;48.180;11.400;2023-08-31T00:48:40;4.28;;;2.30;;
48006;SDS011;33771;48.180;11.400;2023-08-31T00:51:07;5.15;;;2.72;;
48006;SDS011;33771;48.180;11.400;2023-08-31T00:53:33;4.18;;;2.40;;
48006;SDS011;33771;48.180;11.400;2023-08-31T00:56:00;5.07;;;2.30;;
48006;SDS011;33771;48.180;11.400;2023-08-31T00:58:25;5.35;;;2.42;;
48006;SDS011;33771;48.180;11.400;2023-08-31T01:00:58;6.57;;;2.35;;
48006;SDS011;33771;48.180;11.400;2023-08-31T01:03:35;4.03;;;2.38;;
48006;SDS011;33771;48.180;11.400;2023-08-31T01:08:45;7.03;;;2.67;;
48006;SDS011;33771;48.180;11.400;2023-08-31T01:11:22;3.45;;;2.45;;
48006;SDS011;33771;48.180;11.400;2023-08-31T01:14:10;6.13;;;2.40;;
48006;SDS011;33771;48.180;11.400;2023-08-31T01:16:41;4.07;;;2.40;;
48006;SDS011;33771;48.180;11.400;2023-08-31T01:19:12;3.35;;;2.25;;
48006;SDS011;33771;48.180;11.400;2023-08-31T01:21:57;3.55;;;2.28;;
48006;SDS011;33771;48.180;11.400;2023-08-31T01:24:25;4.88;;;2.38;;
48006;SDS011;33771;48.180;11.400;2023-08-31T01:26:52;5.30;;;2.92;;
48006;SDS011;33771;48.180;11.400;2023-08-31T01:29:18;4.90;;;2.55;;
48006;SDS011;33771;48.180;11.400;2023-08-31T01:31:44;3.83;;;2.53;;
48006;SDS011;33771;48.180;11.400;2023-08-31T01:34:12;4.80;;;2.45;;
48006;SDS011;33771;48.180;11.400;2023-08-31T01:36:39;3.13;;;2.22;;
48006;SDS011;33771;48.180;11.400;2023-08-31T01:42:06;3.88;;;2.40;;
48006;SDS011;33771;48.180;11.400;2023-08-31T01:44:36;3.60;;;2.45;;
48006;SDS011;33771;48.180;11.400;2023-08-31T01:47:03;4.60;;;2.50;;
48006;SDS011;33771;48.180;11.400;2023-08-31T01:49:37;3.53;;;2.60;;
48006;SDS011;33771;48.180;11.400;2023-08-31T01:52:04;3.17;;;2.40;;
48006;SDS011;33771;48.180;11.400;2023-08-31T01:54:30;3.90;;;2.20;;
48006;SDS011;33771;48.180;11.400;2023-08-31T01:56:55;4.90;;;2.38;;
48006;SDS011;33771;48.180;11.400;2023-08-31T01:59:21;3.03;;;2.30;;
48006;SDS011;33771;48.180;11.400;2023-08-31T02:01:47;3.05;;;2.22;;
48006;SDS011;33771;48.180;11.400;2023-08-31T02:04:12;6.47;;;2.40;;
48006;SDS011;33771;48.180;11.400;2023-08-31T02:06:38;4.57;;;2.17;;
48006;SDS011;33771;48.180;11.400;2023-08-31T02:09:03;5.88;;;2.60;;
48006;SDS011;33771;48.180;11.400;2023-08-31T02:11:30;5.00;;;2.63;;
48006;SDS011;33771;48.180;11.400;2023-08-31T02:13:56;4.05;;;2.80;;
48006;SDS011;33771;48.180;11.400;2023-08-31T02:16:23;5.63;;;2.42;;
48006;SDS011;33771;48.180;11.400;2023-08-31T02:18:49;6.15;;;2.60;;
48006;SDS011;33771;48.180;11.400;2023-08-31T02:21:14;4.82;;;2.58;;
48006;SDS011;33771;48.180;11.400;2023-08-31T02:23:40;4.53;;;2.90;;
48006;SDS011;33771;48.180;11.400;2023-08-31T02:26:05;3.55;;;2.80;;
48006;SDS011;33771;48.180;11.400;2023-08-31T02:28:31;3.28;;;2.90;;
48006;SDS011;33771;48.180;11.400;2023-08-31T02:30:57;5.65;;;3.53;;
48006;SDS011;33771;48.180;11.400;2023-08-31T02:33:24;4.32;;;3.38;;
48006;SDS011;33771;48.180;11.400;2023-08-31T02:35:50;4.90;;;3.63;;
48006;SDS011;33771;48.180;11.400;2023-08-31T02:38:15;4.43;;;3.70;;
48006;SDS011;33771;48.180;11.400;2023-08-31T02:40:41;5.07;;;3.88;;
48006;SDS011;33771;48.180;11.400;2023-08-31T02:43:06;4.80;;;3.55;;
48006;SDS011;33771;48.180;11.400;2023-08-31T02:45:32;6.28;;;4.28;;
48006;SDS011;33771;48.180;11.400;2023-08-31T02:47:58;5.88;;;3.92;;
48006;SDS011;33771;48.180;11.400;2023-08-31T02:50:23;4.93;;;4.10;;
48006;SDS011;33771;48.180;11.400;2023-08-31T02:52:49;10.50;;;5.07;;
48006;SDS011;33771;48.180;11.400;2023-08-31T02:55:15;5.43;;;4.55;;
48006;SDS011;33771;48.180;11.400;2023-08-31T02:57:40;5.00;;;4.50;;
48006;SDS011;33771;48.180;11.400;2023-08-31T03:00:06;7.07;;;4.50;;
48006;SDS011;33771;48.180;11.400;2023-08-31T03:02:36;6.18;;;4.07;;
48006;SDS011;33771;48.180;11.400;2023-08-31T03:05:01;5.55;;;4.55;;
48006;SDS011;33771;48.180;11.400;2023-08-31T03:07:28;7.43;;;4.78;;
48006;SDS011;33771;48.180;11.400;2023-08-31T03:09:53;5.43;;;4.60;;
48006;SDS011;33771;48.180;11.400;2023-08-31T03:12:19;6.68;;;4.90;;
48006;SDS011;33771;48.180;11.400;2023-08-31T03:14:45;8.25;;;4.82;;
48006;SDS011;33771;48.180;11.400;2023-08-31T03:17:10;6.03;;;5.13;;
48006;SDS011;33771;48.180;11.400;2023-08-31T03:19:36;6.22;;;5.63;;
48006;SDS011;33771;48.180;11.400;2023-08-31T03:22:01;6.05;;;5.32;;
48006;SDS011;33771;48.180;11.400;2023-08-31T03:24:27;7.63;;;4.95;;
48006;SDS011;33771;48.180;11.400;2023-08-31T03:26:52;10.02;;;4.75;;
48006;SDS011;33771;48.180;11.400;2023-08-31T03:29:18;6.20;;;4.85;;
48006;SDS011;33771;48.180;11.400;2023-08-31T03:31:43;6.47;;;4.60;;
48006;SDS011;33771;48.180;11.400;2023-08-31T03:34:09;4.70;;;4.18;;
48006;SDS011;33771;48.180;11.400;2023-08-31T03:36:34;6.38;;;4.70;;
48006;SDS011;33771;48.180;11.400;2023-08-31T03:39:01;5.75;;;4.38;;
48006;SDS011;33771;48.180;11.400;2023-08-31T03:41:26;5.95;;;4.68;;
48006;SDS011;33771;48.180;11.400;2023-08-31T03:43:52;6.45;;;4.60;;
48006;SDS011;33771;48.180;11.400;2023-08-31T03:46:17;6.32;;;4.45;;
48006;SDS011;33771;48.180;11.400;2023-08-31T03:48:43;5.72;;;4.05;;
48006;SDS011;33771;48.180;11.400;2023-08-31T03:51:08;4.10;;;3.70;;
48006;SDS011;33771;48.180;11.400;2023-08-31T03:53:34;4.82;;;3.78;;
48006;SDS011;33771;48.180;11.400;2023-08-31T03:56:00;5.15;;;3.90;;
48006;SDS011;33771;48.180;11.400;2023-08-31T03:58:25;4.38;;;3.50;;
48006;SDS011;33771;48.180;11.400;2023-08-31T04:00:51;5.20;;;4.10;;
48006;SDS011;33771;48.180;11.400;2023-08-31T04:03:17;5.30;;;3.70;;
48006;SDS011;33771;48.180;11.400;2023-08-31T04:05:42;5.40;;;3.67;;
48006;SDS011;33771;48.180;11.400;2023-08-31T04:08:08;5.20;;;4.10;;
48006;SDS011;33771;48.180;11.400;2023-08-31T04:10:33;6.10;;;4.00;;
48006;SDS011;33771;48.180;11.400;2023-08-31T04:12:59;5.40;;;3.90;;
48006;SDS011;33771;48.180;11.400;2023-08-31T04:15:25;6.18;;;3.85;;
48006;SDS011;33771;48.180;11.400;2023-08-31T04:17:50;4.30;;;3.78;;
48006;SDS011;33771;48.180;11.400;2023-08-31T04:20:16;6.22;;;3.65;;
48006;SDS011;33771;48.180;11.400;2023-08-31T04:22:42;5.60;;;4.00;;
48006;SDS011;33771;48.180;11.400;2023-08-31T04:25:08;5.80;;;4.20;;
48006;SDS011;33771;48.180;11.400;2023-08-31T04:27:33;3.97;;;3.58;;
48006;SDS011;33771;48.180;11.400;2023-08-31T04:30:00;4.78;;;3.60;;
48006;SDS011;33771;48.180;11.400;2023-08-31T04:32:26;5.28;;;4.03;;
48006;SDS011;33771;48.180;11.400;2023-08-31T04:34:52;5.47;;;4.10;;
48006;SDS011;33771;48.180;11.400;2023-08-31T04:37:18;5.07;;;3.78;;
48006;SDS011;33771;48.180;11.400;2023-08-31T04:39:43;7.95;;;3.95;;
48006;SDS011;33771;48.180;11.400;2023-08-31T04:42:09;4.88;;;3.75;;
48006;SDS011;33771;48.180;11.400;2023-08-31T04:44:34;4.93;;;3.97;;
48006;SDS011;33771;48.180;11.400;2023-08-31T04:47:00;5.63;;;3.78;;
48006;SDS011;33771;48.180;11.400;2023-08-31T04:49:26;5.63;;;3.75;;
48006;SDS011;33771;48.180;11.400;2023-08-31T04:51:51;6.10;;;4.00;;
48006;SDS011;33771;48.180;11.400;2023-08-31T04:54:17;5.63;;;4.00;;
48006;SDS011;33771;48.180;11.400;2023-08-31T04:56:43;4.80;;;3.95;;
48006;SDS011;33771;48.180;11.400;2023-08-31T04:59:09;3.78;;;3.38;;
48006;SDS011;33771;48.180;11.400;2023-08-31T05:01:34;5.93;;;3.97;;
48006;SDS011;33771;48.180;11.400;2023-08-31T05:04:00;5.53;;;3.80;;
48006;SDS011;33771;48.180;11.400;2023-08-31T05:06:27;4.55;;;3.80;;
48006;SDS011;33771;48.180;11.400;2023-08-31T05:08:53;5.18;;;3.30;;
48006;SDS011;33771;48.180;11.400;2023-08-31T05:11:18;4.88;;;3.40;;
48006;SDS011;33771;48.180;11.400;2023-08-31T05:13:44;4.32;;;3.30;;
48006;SDS011;33771;48.180;11.400;2023-08-31T05:16:09;7.20;;;3.30;;
48006;SDS011;33771;48.180;11.400;2023-08-31T05:18:35;6.05;;;3.58;;
48006;SDS011;33771;48.180;11.400;2023-08-31T05:21:01;4.45;;;3.30;;
48006;SDS011;33771;48.180;11.400;2023-08-31T05:23:28;4.40;;;3.05;;
48006;SDS011;33771;48.180;11.400;2023-08-31T05:25:54;3.65;;;2.83;;
48006;SDS011;33771;48.180;11.400;2023-08-31T05:28:21;4.75;;;3.10;;
48006;SDS011;33771;48.180;11.400;2023-08-31T05:30:51;5.13;;;3.28;;
48006;SDS011;33771;48.180;11.400;2023-08-31T05:33:18;3.33;;;2.60;;
48006;SDS011;33771;48.180;11.400;2023-08-31T05:35:44;6.60;;;2.90;;
48006;SDS011;33771;48.180;11.400;2023-08-31T05:38:10;4.45;;;2.90;;
48006;SDS011;33771;48.180;11.400;2023-08-31T05:40:36;4.43;;;2.80;;
48006;SDS011;33771;48.180;11.400;2023-08-31T05:43:01;5.57;;;2.75;;
48006;SDS011;33771;48.180;11.400;2023-08-31T05:45:33;5.47;;;2.80;;
48006;SDS011;33771;48.180;11.400;2023-08-31T05:47:59;3.42;;;2.80;;
48006;SDS011;33771;48.180;11.400;2023-08-31T05:50:25;3.75;;;2.60;;
48006;SDS011;33771;48.180;11.400;2023-08-31T05:52:52;3.30;;;2.70;;
48006;SDS011;33771;48.180;11.400;2023-08-31T05:55:17;5.28;;;3.00;;
48006;SDS011;33771;48.180;11.400;2023-08-31T05:57:43;5.80;;;2.83;;
48006;SDS011;33771;48.180;11.400;2023-08-31T06:00:08;3.25;;;2.75;;
48006;SDS011;33771;48.180;11.400;2023-08-31T06:02:34;3.83;;;2.80;;
48006;SDS011;33771;48.180;11.400;2023-08-31T06:05:00;4.30;;;3.10;;
48006;SDS011;33771;48.180;11.400;2023-08-31T06:07:26;4.60;;;2.88;;
48006;SDS011;33771;48.180;11.400;2023-08-31T06:09:54;5.63;;;2.95;;
48006;SDS011;33771;48.180;11.400;2023-08-31T06:12:20;3.42;;;2.80;;
48006;SDS011;33771;48.180;11.400;2023-08-31T06:14:45;3.30;;;2.53;;
48006;SDS011;33771;48.180;11.400;2023-08-31T06:17:11;5.85;;;3.20;;
48006;SDS011;33771;48.180;11.400;2023-08-31T06:19:38;6.95;;;3.60;;
48006;SDS011;33771;48.180;11.400;2023-08-31T06:22:04;5.28;;;3.20;;
48006;SDS011;33771;48.180;11.400;2023-08-31T06:24:29;4.63;;;2.92;;
48006;SDS011;33771;48.180;11.400;2023-08-31T06:26:55;4.47;;;3.63;;
48006;SDS011;33771;48.180;11.400;2023-08-31T06:29:21;4.78;;;3.40;;
48006;SDS011;33771;48.180;11.400;2023-08-31T06:31:47;4.22;;;3.45;;
48006;SDS011;33771;48.180;11.400;2023-08-31T06:34:13;5.30;;;3.90;;
48006;SDS011;33771;48.180;11.400;2023-08-31T06:36:38;4.80;;;3.20;;
48006;SDS011;33771;48.180;11.400;2023-08-31T06:39:05;5.72;;;3.40;;
48006;SDS011;33771;48.180;11.400;2023-08-31T06:41:31;4.22;;;3.10;;
48006;SDS011;33771;48.180;11.400;2023-08-31T06:43:56;5.65;;;2.90;;
48006;SDS011;33771;48.180;11.400;2023-08-31T06:46:22;4.72;;;3.00;;
48006;SDS011;33771;48.180;11.400;2023-08-31T06:48:47;4.95;;;2.60;;
48006;SDS011;33771;48.180;11.400;2023-08-31T06:51:13;4.53;;;2.70;;
48006;SDS011;33771;48.180;11.400;2023-08-31T06:53:40;3.78;;;2.88;;
48006;SDS011;33771;48.180;11.400;2023-08-31T06:56:09;3.65;;;2.50;;
48006;SDS011;33771;48.180;11.400;2023-08-31T06:58:35;2.90;;;2.40;;
48006;SDS011;33771;48.180;11.400;2023-08-31T07:01:00;3.17;;;2.30;;
48006;SDS011;33771;48.180;11.400;2023-08-31T07:03:30;4.03;;;2.47;;
48006;SDS011;33771;48.180;11.400;2023-08-31T07:05:56;3.03;;;2.10;;
48006;SDS011;33771;48.180;11.400;2023-08-31T07:08:21;3.40;;;2.05;;
48006;SDS011;33771;48.180;11.400;2023-08-31T07:10:49;3.65;;;2.10;;
48006;SDS011;33771;48.180;11.400;2023-08-31T07:13:15;4.40;;;1.92;;
48006;SDS011;33771;48.180;11.400;2023-08-31T07:15:41;3.45;;;1.83;;
48006;SDS011;33771;48.180;11.400;2023-08-31T07:18:06;4.50;;;2.22;;
48006;SDS011;33771;48.180;11.400;2023-08-31T07:20:32;4.80;;;2.58;;
48006;SDS011;33771;48.180;11.400;2023-08-31T07:22:58;3.38;;;2.03;;
48006;SDS011;33771;48.180;11.400;2023-08-31T07:25:24;4.00;;;1.90;;
48006;SDS011;33771;48.180;11.400;2023-08-31T07:27:50;4.63;;;2.20;;
48006;SDS011;33771;48.180;11.400;2023-08-31T07:30:16;4.80;;;2.28;;
48006;SDS011;33771;48.180;11.400;2023-08-31T07:32:41;3.17;;;2.00;;
48006;SDS011;33771;48.180;11.400;2023-08-31T07:35:07;2.95;;;1.92;;
48006;SDS011;33771;48.180;11.400;2023-08-31T07:37:32;3.67;;;1.83;;
48006;SDS011;33771;48.180;11.400;2023-08-31T07:39:58;4.45;;;2.00;;
48006;SDS011;33771;48.180;11.400;2023-08-31T07:42:24;3.53;;;2.17;;
48006;SDS011;33771;48.180;11.400;2023-08-31T07:44:49;3.92;;;2.05;;
48006;SDS011;33771;48.180;11.400;2023-08-31T07:47:15;4.32;;;2.17;;
48006;SDS011;33771;48.180;11.400;2023-08-31T07:49:40;4.82;;;2.35;;
48006;SDS011;33771;48.180;11.400;2023-08-31T07:52:06;3.90;;;2.40;;
48006;SDS011;33771;48.180;11.400;2023-08-31T07:54:31;5.97;;;2.20;;
48006;SDS011;33771;48.180;11.400;2023-08-31T07:56:57;3.55;;;2.05;;
48006;SDS011;33771;48.180;11.400;2023-08-31T07:59:23;3.25;;;1.88;;
48006;SDS011;33771;48.180;11.400;2023-08-31T08:01:48;3.35;;;2.20;;
48006;SDS011;33771;48.180;11.400;2023-08-31T08:04:14;5.53;;;2.13;;
48006;SDS011;33771;48.180;11.400;2023-08-31T08:06:39;4.57;;;2.22;;
48006;SDS011;33771;48.180;11.400;2023-08-31T08:09:05;4.95;;;2.42;;
48006;SDS011;33771;48.180;11.400;2023-08-31T08:11:31;4.90;;;2.25;;
48006;SDS011;33771;48.180;11.400;2023-08-31T08:13:57;3.80;;;2.30;;
48006;SDS011;33771;48.180;11.400;2023-08-31T08:16:22;4.55;;;2.33;;
48006;SDS011;33771;48.180;11.400;2023-08-31T08:18:49;5.40;;;2.17;;
48006;SDS011;33771;48.180;11.400;2023-08-31T08:21:15;5.22;;;2.30;;
48006;SDS011;33771;48.180;11.400;2023-08-31T08:23:40;6.78;;;2.50;;
48006;SDS011;33771;48.180;11.400;2023-08-31T08:26:06;5.05;;;2.30;;
48006;SDS011;33771;48.180;11.400;2023-08-31T08:28:33;8.05;;;2.47;;
48006;SDS011;33771;48.180;11.400;2023-08-31T08:31:01;4.65;;;2.25;;
48006;SDS011;33771;48.180;11.400;2023-08-31T08:33:30;6.07;;;2.67;;
48006;SDS011;33771;48.180;11.400;2023-08-31T08:35:56;3.65;;;2.15;;
48006;SDS011;33771;48.180;11.400;2023-08-31T08:38:22;3.88;;;2.30;;
48006;SDS011;33771;48.180;11.400;2023-08-31T08:40:48;5.30;;;2.38;;
48006;SDS011;33771;48.180;11.400;2023-08-31T08:43:13;5.03;;;2.20;;
48006;SDS011;33771;48.180;11.400;2023-08-31T08:45:39;6.15;;;2.45;;
48006;SDS011;33771;48.180;11.400;2023-08-31T08:48:07;5.22;;;2.20;;
48006;SDS011;33771;48.180;11.400;2023-08-31T08:50:34;3.90;;;2.22;;
48006;SDS011;33771;48.180;11.400;2023-08-31T08:53:02;6.80;;;2.47;;
48006;SDS011;33771;48.180;11.400;2023-08-31T08:55:28;5.95;;;2.17;;
48006;SDS011;33771;48.180;11.400;2023-08-31T08:57:54;6.78;;;2.70;;
48006;SDS011;33771;48.180;11.400;2023-08-31T09:00:20;3.45;;;2.15;;
48006;SDS011;33771;48.180;11.400;2023-08-31T09:02:46;5.95;;;2.17;;
48006;SDS011;33771;48.180;11.400;2023-08-31T09:05:11;4.15;;;1.98;;
48006;SDS011;33771;48.180;11.400;2023-08-31T09:07:38;4.28;;;2.10;;
48006;SDS011;33771;48.180;11.400;2023-08-31T09:10:04;5.63;;;2.20;;
48006;SDS011;33771;48.180;11.400;2023-08-31T09:12:30;4.13;;;2.08;;
48006;SDS011;33771;48.180;11.400;2023-08-31T09:14:58;6.10;;;2.20;;
48006;SDS011;33771;48.180;11.400;2023-08-31T09:17:25;6.13;;;2.03;;
48006;SDS011;33771;48.180;11.400;2023-08-31T09:20:00;4.45;;;1.83;;
48006;SDS011;33771;48.180;11.400;2023-08-31T09:22:28;6.95;;;2.15;;
48006;SDS011;33771;48.180;11.400;2023-08-31T09:24:54;3.83;;;2.05;;
48006;SDS011;33771;48.180;11.400;2023-08-31T09:27:20;6.60;;;2.40;;
48006;SDS011;33771;48.180;11.400;2023-08-31T09:29:48;4.00;;;1.90;;
48006;SDS011;33771;48.180;11.400;2023-08-31T09:32:17;4.22;;;2.10;;
48006;SDS011;33771;48.180;11.400;2023-08-31T09:34:43;4.93;;;2.17;;
48006;SDS011;33771;48.180;11.400;2023-08-31T09:37:09;4.38;;;1.80;;
48006;SDS011;33771;48.180;11.400;2023-08-31T09:39:39;4.43;;;2.20;;
48006;SDS011;33771;48.180;11.400;2023-08-31T09:42:04;5.97;;;1.90;;
48006;SDS011;33771;48.180;11.400;2023-08-31T09:44:31;5.70;;;2.03;;
48006;SDS011;33771;48.180;11.400;2023-08-31T09:46:56;4.00;;;2.13;;
48006;SDS011;33771;48.180;11.400;2023-08-31T09:49:23;3.13;;;2.28;;
48006;SDS011;33771;48.180;11.400;2023-08-31T09:51:50;3.05;;;1.90;;
48006;SDS011;33771;48.180;11.400;2023-08-31T09:54:17;4.07;;;1.90;;
48006;SDS011;33771;48.180;11.400;2023-08-31T09:56:47;4.57;;;2.15;;
48006;SDS011;33771;48.180;11.400;2023-08-31T09:59:13;3.95;;;1.75;;
48006;SDS011;33771;48.180;11.400;2023-08-31T10:01:40;3.20;;;1.67;;
48006;SDS011;33771;48.180;11.400;2023-08-31T10:04:09;3.75;;;2.10;;
48006;SDS011;33771;48.180;11.400;2023-08-31T10:06:35;4.03;;;2.05;;
48006;SDS011;33771;48.180;11.400;2023-08-31T10:09:03;3.40;;;1.98;;
48006;SDS011;33771;48.180;11.400;2023-08-31T10:11:29;4.38;;;2.20;;
48006;SDS011;33771;48.180;11.400;2023-08-31T10:13:55;3.17;;;1.98;;
48006;SDS011;33771;48.180;11.400;2023-08-31T10:16:24;3.13;;;1.80;;
48006;SDS011;33771;48.180;11.400;2023-08-31T10:18:51;3.22;;;1.88;;
48006;SDS011;33771;48.180;11.400;2023-08-31T10:21:18;5.00;;;2.00;;
48006;SDS011;33771;48.180;11.400;2023-08-31T10:23:49;2.72;;;1.73;;
48006;SDS011;33771;48.180;11.400;2023-08-31T10:26:26;3.05;;;1.67;;
48006;SDS011;33771;48.180;11.400;2023-08-31T10:28:53;7.03;;;2.20;;
48006;SDS011;33771;48.180;11.400;2023-08-31T10:31:19;4.85;;;2.05;;
48006;SDS011;33771;48.180;11.400;2023-08-31T10:36:22;2.90;;;1.77;;
48006;SDS011;33771;48.180;11.400;2023-08-31T10:39:12;5.78;;;2.20;;
48006;SDS011;33771;48.180;11.400;2023-08-31T10:41:38;5.30;;;2.33;;
48006;SDS011;33771;48.180;11.400;2023-08-31T10:44:21;4.53;;;2.50;;
48006;SDS011;33771;48.180;11.400;2023-08-31T10:46:48;5.88;;;2.40;;
48006;SDS011;33771;48.180;11.400;2023-08-31T10:49:15;5.13;;;2.70;;
48006;SDS011;33771;48.180;11.400;2023-08-31T10:51:55;5.65;;;2.30;;
48006;SDS011;33771;48.180;11.400;2023-08-31T10:54:23;5.22;;;2.10;;
48006;SDS011;33771;48.180;11.400;2023-08-31T10:59:43;8.02;;;2.60;;
48006;SDS011;33771;48.180;11.400;2023-08-31T11:02:11;4.20;;;2.38;;
48006;SDS011;33771;48.180;11.400;2023-08-31T11:07:29;7.65;;;2.17;;
48006;SDS011;33771;48.180;11.400;2023-08-31T11:10:06;5.07;;;1.90;;
48006;SDS011;33771;48.180;11.400;2023-08-31T11:12:48;6.25;;;2.22;;
48006;SDS011;33771;48.180;11.400;2023-08-31T11:15:19;5.70;;;2.38;;
48006;SDS011;33771;48.180;11.400;2023-08-31T11:17:47;4.55;;;1.92;;
48006;SDS011;33771;48.180;11.400;2023-08-31T11:20:15;5.65;;;2.25;;
48006;SDS011;33771;48.180;11.400;2023-08-31T11:22:44;5.68;;;2.38;;
48006;SDS011;33771;48.180;11.400;2023-08-31T11:25:11;6.38;;;2.25;;
48006;SDS011;33771;48.180;11.400;2023-08-31T11:27:38;8.23;;;2.70;;
48006;SDS011;33771;48.180;11.400;2023-08-31T11:30:14;5.78;;;2.67;;
48006;SDS011;33771;48.180;11.400;2023-08-31T11:32:46;4.72;;;2.33;;
48006;SDS011;33771;48.180;11.400;2023-08-31T11:35:14;6.88;;;2.92;;
48006;SDS011;33771;48.180;11.400;2023-08-31T11:37:41;6.65;;;2.63;;
48006;SDS011;33771;48.180;11.400;2023-08-31T11:40:08;7.07;;;2.97;;
48006;SDS011;33771;48.180;11.400;2023-08-31T11:42:34;6.43;;;2.20;;
48006;SDS011;33771;48.180;11.400;2023-08-31T11:45:00;5.32;;;2.50;;
48006;SDS011;33771;48.180;11.400;2023-08-31T11:47:30;3.78;;;1.85;;
48006;SDS011;33771;48.180;11.400;2023-08-31T11:49:56;6.63;;;2.55;;
48006;SDS011;33771;48.180;11.400;2023-08-31T11:52:22;5.85;;;2.35;;
48006;SDS011;33771;48.180;11.400;2023-08-31T11:54:50;7.32;;;2.10;;
48006;SDS011;33771;48.180;11.400;2023-08-31T11:57:18;5.35;;;2.00;;
48006;SDS011;33771;48.180;11.400;2023-08-31T11:59:43;4.97;;;2.20;;
48006;SDS011;33771;48.180;11.400;2023-08-31T12:02:09;4.28;;;2.17;;
48006;SDS011;33771;48.180;11.400;2023-08-31T12:04:44;8.70;;;2.20;;
48006;SDS011;33771;48.180;11.400;2023-08-31T12:07:11;4.65;;;2.35;;
48006;SDS011;33771;48.180;11.400;2023-08-31T12:09:40;5.13;;;2.05;;
48006;SDS011;33771;48.180;11.400;2023-08-31T12:12:07;6.82;;;2.10;;
48006;SDS011;33771;48.180;11.400;2023-08-31T12:14:33;5.82;;;2.03;;
48006;SDS011;33771;48.180;11.400;2023-08-31T12:17:08;4.38;;;1.92;;
48006;SDS011;33771;48.180;11.400;2023-08-31T12:19:37;4.20;;;2.20;;
48006;SDS011;33771;48.180;11.400;2023-08-31T12:22:06;3.55;;;1.90;;
48006;SDS011;33771;48.180;11.400;2023-08-31T12:24:41;4.50;;;1.95;;
48006;SDS011;33771;48.180;11.400;2023-08-31T12:27:07;5.43;;;2.25;;
48006;SDS011;33771;48.180;11.400;2023-08-31T12:29:33;7.45;;;2.25;;
48006;SDS011;33771;48.180;11.400;2023-08-31T12:31:59;5.70;;;2.40;;
48006;SDS011;33771;48.180;11.400;2023-08-31T12:34:24;5.10;;;2.10;;
48006;SDS011;33771;48.180;11.400;2023-08-31T12:36:51;7.13;;;2.35;;
48006;SDS011;33771;48.180;11.400;2023-08-31T12:39:17;4.43;;;2.20;;
48006;SDS011;33771;48.180;11.400;2023-08-31T12:41:43;6.03;;;2.55;;
48006;SDS011;33771;48.180;11.400;2023-08-31T12:44:08;7.82;;;2.20;;
48006;SDS011;33771;48.180;11.400;2023-08-31T12:46:34;6.28;;;1.90;;
48006;SDS011;33771;48.180;11.400;2023-08-31T12:49:00;6.72;;;2.60;;
48006;SDS011;33771;48.180;11.400;2023-08-31T12:51:26;5.05;;;2.20;;
48006;SDS011;33771;48.180;11.400;2023-08-31T12:53:53;6.28;;;2.22;;
48006;SDS011;33771;48.180;11.400;2023-08-31T12:56:19;6.85;;;1.98;;
48006;SDS011;33771;48.180;11.400;2023-08-31T12:58:50;5.68;;;2.25;;
48006;SDS011;33771;48.180;11.400;2023-08-31T13:01:18;4.65;;;2.22;;
48006;SDS011;33771;48.180;11.400;2023-08-31T13:03:44;4.03;;;1.85;;
48006;SDS011;33771;48.180;11.400;2023-08-31T13:06:12;4.70;;;1.77;;
48006;SDS011;33771;48.180;11.400;2023-08-31T13:08:37;5.07;;;2.13;;
48006;SDS011;33771;48.180;11.400;2023-08-31T13:11:03;4.07;;;2.00;;
48006;SDS011;33771;48.180;11.400;2023-08-31T13:13:30;5.70;;;2.15;;
48006;SDS011;33771;48.180;11.400;2023-08-31T13:15:56;5.57;;;2.00;;
48006;SDS011;33771;48.180;11.400;2023-08-31T13:18:22;4.82;;;2.25;;
48006;SDS011;33771;48.180;11.400;2023-08-31T13:20:48;5.90;;;2.20;;
48006;SDS011;33771;48.180;11.400;2023-08-31T13:23:18;3.70;;;1.90;;
48006;SDS011;33771;48.180;11.400;2023-08-31T13:25:44;5.43;;;2.15;;
48006;SDS011;33771;48.180;11.400;2023-08-31T13:28:10;6.95;;;2.50;;
48006;SDS011;33771;48.180;11.400;2023-08-31T13:30:36;7.00;;;2.10;;
48006;SDS011;33771;48.180;11.400;2023-08-31T13:33:01;7.25;;;2.17;;
48006;SDS011;33771;48.180;11.400;2023-08-31T13:35:29;5.95;;;2.50;;
48006;SDS011;33771;48.180;11.400;2023-08-31T13:37:54;7.63;;;1.90;;
48006;SDS011;33771;48.180;11.400;2023-08-31T13:40:20;4.63;;;1.85;;
48006;SDS011;33771;48.180;11.400;2023-08-31T13:42:55;6.63;;;1.90;;
48006;SDS011;33771;48.180;11.400;2023-08-31T13:45:24;5.72;;;2.25;;
48006;SDS011;33771;48.180;11.400;2023-08-31T13:47:50;5.32;;;2.30;;
48006;SDS011;33771;48.180;11.400;2023-08-31T13:50:16;7.13;;;2.50;;
48006;SDS011;33771;48.180;11.400;2023-08-31T13:52:41;6.13;;;2.15;;
48006;SDS011;33771;48.180;11.400;2023-08-31T13:55:07;6.82;;;2.60;;
48006;SDS011;33771;48.180;11.400;2023-08-31T13:57:33;5.55;;;2.45;;
48006;SDS011;33771;48.180;11.400;2023-08-31T13:59:58;4.82;;;2.38;;
48006;SDS011;33771;48.180;11.400;2023-08-31T14:02:25;6.50;;;2.05;;
48006;SDS011;33771;48.180;11.400;2023-08-31T14:04:51;5.97;;;2.03;;
48006;SDS011;33771;48.180;11.400;2023-08-31T14:07:17;6.03;;;2.10;;
48006;SDS011;33771;48.180;11.400;2023-08-31T14:09:43;7.18;;;2.08;;
48006;SDS011;33771;48.180;11.400;2023-08-31T14:12:08;5.68;;;2.03;;
48006;SDS011;33771;48.180;11.400;2023-08-31T14:14:34;7.90;;;2.35;;
48006;SDS011;33771;48.180;11.400;2023-08-31T14:17:00;5.85;;;2.28;;
48006;SDS011;33771;48.180;11.400;2023-08-31T14:19:25;5.22;;;2.15;;
48006;SDS011;33771;48.180;11.400;2023-08-31T14:21:51;6.30;;;2.13;;
48006;SDS011;33771;48.180;11.400;2023-08-31T14:24:18;5.00;;;2.10;;
48006;SDS011;33771;48.180;11.400;2023-08-31T14:26:44;4.53;;;2.20;;
48006;SDS011;33771;48.180;11.400;2023-08-31T14:29:10;7.07;;;2.10;;
48006;SDS011;33771;48.180;11.400;2023-08-31T14:31:35;4.90;;;2.38;;
48006;SDS011;33771;48.180;11.400;2023-08-31T14:34:01;5.28;;;2.10;;
48006;SDS011;33771;48.180;11.400;2023-08-31T14:36:27;5.93;;;1.90;;
48006;SDS011;33771;48.180;11.400;2023-08-31T14:38:52;4.55;;;2.03;;
48006;SDS011;33771;48.180;11.400;2023-08-31T14:41:18;6.55;;;2.00;;
48006;SDS011;33771;48.180;11.400;2023-08-31T14:43:43;5.82;;;2.00;;
48006;SDS011;33771;48.180;11.400;2023-08-31T14:46:09;4.32;;;1.95;;